Time;durP1;ratioP1;P1;durP2;ratioP2;P2;SDS_P1;SDS_P2;PMS_P1;PMS_P2;Temp;Humidity;BMP_temperature;BMP_pressure;BME280_temperature;BME280_humidity;BME280_pressure;Samples;Min_cycle;Max_cycle;Signal;HPM_P1;HPM_P2
2022/03/17 00:00:56;;;;;;;29.08;16.50;;;;;;;9.36;80.90;101826.13;5013655;28;20033;-86
2022/03/17 00:03:22;;;;;;;26.58;16.02;;;;;;;9.36;80.98;101817.25;5013266;28;20026;-85
2022/03/17 00:05:48;;;;;;;26.08;15.35;;;;;;;9.38;80.82;101825.88;4976940;28;20401;-85
2022/03/17 00:08:14;;;;;;;25.30;16.40;;;;;;;9.36;81.09;101833.31;5000031;28;20037;-85
2022/03/17 00:10:40;;;;;;;25.42;15.55;;;;;;;9.34;80.92;101830.88;5013306;28;20022;-85
2022/03/17 00:13:05;;;;;;;28.00;17.07;;;;;;;9.30;81.42;101821.66;5010226;28;20520;-86
2022/03/17 00:15:30;;;;;;;26.75;15.85;;;;;;;9.31;81.39;101819.81;5012785;28;20108;-86
2022/03/17 00:17:58;;;;;;;24.30;15.37;;;;;;;9.28;81.43;101818.41;5011476;28;20113;-86
2022/03/17 00:20:23;;;;;;;23.42;14.70;;;;;;;9.28;81.43;101809.56;5013001;28;20527;-85
2022/03/17 00:22:49;;;;;;;28.13;17.93;;;;;;;9.27;81.94;101823.97;5014524;28;20096;-84
2022/03/17 00:25:16;;;;;;;29.42;15.82;;;;;;;9.24;81.98;101814.53;5012318;28;20539;-85
2022/03/17 00:27:42;;;;;;;26.05;17.10;;;;;;;9.22;82.04;101812.09;5010316;28;20030;-86
2022/03/17 00:30:08;;;;;;;25.07;15.30;;;;;;;9.20;81.95;101816.84;5013292;28;20096;-85
2022/03/17 00:32:33;;;;;;;27.40;16.05;;;;;;;9.17;82.06;101806.59;5011868;28;20477;-85
2022/03/17 00:37:43;;;;;;;25.70;15.55;;;;;;;9.10;82.45;101808.53;5006864;28;20061;-85
2022/03/17 00:40:09;;;;;;;26.70;16.27;;;;;;;9.05;82.75;101814.53;5009090;28;20442;-86
2022/03/17 00:42:36;;;;;;;25.97;15.27;;;;;;;8.98;82.93;101819.16;4978356;28;20027;-85
2022/03/17 00:45:02;;;;;;;25.63;15.65;;;;;;;8.96;83.25;101817.72;4995425;28;20083;-85
2022/03/17 00:47:27;;;;;;;29.52;17.20;;;;;;;8.94;83.64;101818.78;5009089;28;20038;-85
2022/03/17 00:49:52;;;;;;;25.80;15.23;;;;;;;8.98;83.92;101818.31;5027954;28;20037;-86
2022/03/17 00:52:20;;;;;;;26.67;15.93;;;;;;;8.94;83.92;101816.13;5015910;28;20034;-85
2022/03/17 00:54:46;;;;;;;29.43;16.03;;;;;;;8.92;84.15;101820.88;4994751;28;20034;-85
2022/03/17 00:57:12;;;;;;;31.60;16.25;;;;;;;8.93;84.33;101833.19;4997540;28;20034;-85
2022/03/17 00:59:38;;;;;;;31.40;17.10;;;;;;;8.97;84.24;101819.38;5012018;28;20520;-85
2022/03/17 01:02:05;;;;;;;30.33;15.93;;;;;;;8.96;84.10;101831.09;5010563;28;20018;-85
2022/03/17 01:04:31;;;;;;;28.97;16.47;;;;;;;8.96;84.39;101815.88;5012684;28;20293;-85
2022/03/17 01:06:56;;;;;;;30.75;16.83;;;;;;;8.98;84.14;101827.19;5007425;28;20156;-85
2022/03/17 01:09:22;;;;;;;31.17;17.37;;;;;;;9.03;84.57;101826.50;5012271;28;20026;-86
2022/03/17 01:11:47;;;;;;;26.23;16.60;;;;;;;9.05;84.43;101829.78;5008807;28;20057;-86
2022/03/17 01:14:15;;;;;;;28.40;17.00;;;;;;;9.03;84.45;101834.53;5007023;28;20158;-86
2022/03/17 01:16:41;;;;;;;27.07;15.70;;;;;;;9.03;84.68;101829.19;4996146;28;20022;-85
2022/03/17 01:19:06;;;;;;;31.07;16.83;;;;;;;9.04;84.84;101825.47;5006847;28;20383;-86
2022/03/17 01:21:32;;;;;;;27.92;17.08;;;;;;;9.07;84.80;101828.50;5010462;28;20121;-86
2022/03/17 01:23:58;;;;;;;25.93;16.53;;;;;;;9.14;84.58;101824.94;4993985;28;20026;-85
2022/03/17 01:26:24;;;;;;;29.52;15.90;;;;;;;9.17;84.58;101824.50;5010299;28;20672;-85
2022/03/17 01:28:50;;;;;;;32.95;17.63;;;;;;;9.20;84.39;101822.19;5008763;28;20031;-85
2022/03/17 01:31:15;;;;;;;33.07;16.40;;;;;;;9.21;84.59;101815.00;5011613;28;20075;-86
2022/03/17 01:33:40;;;;;;;32.87;17.77;;;;;;;9.24;84.78;101820.72;5009625;28;20417;-85
2022/03/17 01:36:06;;;;;;;27.73;16.40;;;;;;;9.26;84.72;101819.66;5010968;28;20117;-86
2022/03/17 01:38:31;;;;;;;30.73;16.63;;;;;;;9.30;84.71;101826.22;4990303;28;20030;-86
2022/03/17 01:40:58;;;;;;;30.33;17.95;;;;;;;9.35;84.42;101831.69;4986974;28;20034;-84
2022/03/17 01:43:23;;;;;;;31.17;18.07;;;;;;;9.39;84.52;101831.03;4991775;28;20022;-85
2022/03/17 01:45:51;;;;;;;30.17;16.60;;;;;;;9.44;84.32;101824.16;4991951;28;20306;-85
2022/03/17 01:48:16;;;;;;;26.53;15.40;;;;;;;9.46;84.12;101825.59;4999258;28;20028;-85
2022/03/17 01:50:43;;;;;;;28.63;16.40;;;;;;;9.47;84.42;101818.38;5005255;28;20819;-86
2022/03/17 01:53:09;;;;;;;28.35;16.65;;;;;;;9.48;84.53;101823.50;5004753;28;20018;-85
2022/03/17 01:55:36;;;;;;;33.57;16.33;;;;;;;9.51;84.93;101822.22;4992435;28;20045;-86
2022/03/17 01:58:02;;;;;;;32.07;16.83;;;;;;;9.52;84.82;101824.66;4996867;28;20611;-85
2022/03/17 02:00:28;;;;;;;27.63;15.90;;;;;;;9.55;85.07;101820.75;5011734;28;20273;-86
2022/03/17 02:02:53;;;;;;;26.42;16.30;;;;;;;9.58;85.15;101822.97;5011880;28;20105;-86
2022/03/17 02:05:19;;;;;;;24.80;14.47;;;;;;;9.61;85.19;101808.31;5012810;28;20053;-86
2022/03/17 02:07:53;;;;;;;28.25;15.55;;;;;;;9.63;85.49;101822.28;5006706;28;20161;-85
2022/03/17 02:10:22;;;;;;;28.90;15.88;;;;;;;9.64;85.66;101823.91;5010226;28;20053;-86
2022/03/17 02:15:33;;;;;;;30.83;15.90;;;;;;;9.66;85.17;101828.00;5012037;28;20288;-86
2022/03/17 02:18:00;;;;;;;29.58;15.55;;;;;;;9.67;85.55;101826.16;5008028;28;20072;-86
2022/03/17 02:20:26;;;;;;;27.48;15.38;;;;;;;9.67;85.64;101828.81;5007026;28;20038;-85
2022/03/17 02:22:54;;;;;;;27.77;16.25;;;;;;;9.67;85.32;101829.63;5008361;28;20387;-84
2022/03/17 02:25:34;;;;;;;28.65;15.35;;;;;;;9.66;85.45;101833.34;5008346;28;20037;-85
2022/03/17 02:28:02;;;;;;;30.75;15.48;;;;;;;9.69;85.33;101838.25;5009235;28;20449;-85
2022/03/17 02:30:27;;;;;;;33.65;18.10;;;;;;;9.69;85.94;101834.75;4994055;28;20053;-86
2022/03/17 02:33:01;;;;;;;25.50;15.53;;;;;;;9.69;85.67;101842.78;5014104;28;20030;-85
2022/03/17 02:35:27;;;;;;;29.27;15.88;;;;;;;9.70;85.95;101844.41;4974961;28;20035;-85
2022/03/17 02:37:52;;;;;;;29.33;15.85;;;;;;;9.72;86.40;101844.19;4978071;28;20513;-85
2022/03/17 02:40:18;;;;;;;27.57;16.13;;;;;;;9.70;86.32;101850.59;4982817;28;20035;-85
2022/03/17 02:42:45;;;;;;;33.03;16.80;;;;;;;9.72;86.94;101852.22;4999185;28;20138;-85
2022/03/17 02:45:11;;;;;;;29.33;16.00;;;;;;;9.73;87.04;101854.66;4999352;28;20057;-85
2022/03/17 02:47:38;;;;;;;32.50;17.17;;;;;;;9.74;87.63;101863.53;5008367;28;20074;-85
2022/03/17 02:50:05;;;;;;;34.47;17.13;;;;;;;9.74;87.35;101856.28;5026481;28;20112;-84
2022/03/17 02:52:30;;;;;;;33.50;17.00;;;;;;;9.73;87.30;101864.56;5014908;28;20101;-85
2022/03/17 02:54:56;;;;;;;35.33;17.73;;;;;;;9.77;88.51;101865.75;4999069;28;20320;-85
2022/03/17 02:57:23;;;;;;;32.80;17.60;;;;;;;9.79;89.12;101869.81;5009181;28;20035;-84
2022/03/17 02:59:51;;;;;;;36.87;18.37;;;;;;;9.81;89.67;101874.94;4984233;28;20342;-86
2022/03/17 03:02:21;;;;;;;35.10;18.88;;;;;;;9.82;91.32;101880.09;5011597;28;20273;-85
2022/03/17 03:04:47;;;;;;;34.33;18.77;;;;;;;9.81;91.96;101894.50;5017011;28;20026;-85
2022/03/17 03:07:14;;;;;;;40.63;22.58;;;;;;;9.80;95.60;101890.19;5012870;28;20501;-85
2022/03/17 03:09:40;;;;;;;42.50;20.90;;;;;;;9.75;96.38;101892.72;5009686;28;20383;-85
2022/03/17 03:12:06;;;;;;;42.23;22.67;;;;;;;9.74;98.49;101899.13;5016452;28;20030;-86
2022/03/17 03:14:32;;;;;;;42.20;20.98;;;;;;;9.72;99.43;101917.25;5008039;28;20030;-86
2022/03/17 03:16:57;;;;;;;38.03;20.80;;;;;;;9.67;100.00;101917.94;5012752;28;20121;-86
2022/03/17 03:19:24;;;;;;;37.77;19.40;;;;;;;9.61;100.00;101936.75;5006432;28;20109;-86
2022/03/17 03:21:51;;;;;;;33.87;17.57;;;;;;;9.52;100.00;101941.59;5010821;28;20280;-85
2022/03/17 03:24:18;;;;;;;31.42;15.90;;;;;;;9.45;100.00;101952.38;4986108;28;20022;-85
2022/03/17 03:26:44;;;;;;;26.80;14.55;;;;;;;9.36;100.00;101943.81;4994690;28;20037;-85
2022/03/17 03:29:21;;;;;;;20.95;12.85;;;;;;;9.28;100.00;101960.16;5010577;28;20031;-85
2022/03/17 03:31:46;;;;;;;19.02;12.18;;;;;;;9.17;100.00;101961.69;5029350;28;20076;-85
2022/03/17 03:34:13;;;;;;;14.97;9.67;;;;;;;9.08;100.00;101957.69;5023006;28;20033;-87
2022/03/17 03:39:22;;;;;;;14.25;9.18;;;;;;;8.97;100.00;101982.44;5015386;28;20041;-88
2022/03/17 03:41:47;;;;;;;13.63;8.77;;;;;;;8.89;100.00;101981.69;5008280;28;20076;-87
2022/03/17 03:44:15;;;;;;;14.50;9.87;;;;;;;8.85;100.00;101988.50;4991893;28;20101;-87
2022/03/17 03:46:41;;;;;;;14.13;9.37;;;;;;;8.79;100.00;101995.53;4994413;28;20303;-87
2022/03/17 03:49:07;;;;;;;13.93;9.10;;;;;;;8.77;100.00;102002.94;4996561;28;20031;-88
2022/03/17 03:51:32;;;;;;;15.55;10.73;;;;;;;8.73;100.00;102007.09;5004453;28;20057;-86
2022/03/17 03:54:13;;;;;;;18.77;11.13;;;;;;;8.70;100.00;102014.72;5022351;28;20552;-85
2022/03/17 03:56:44;;;;;;;17.40;11.57;;;;;;;8.66;100.00;102032.22;4973552;28;20031;-85
2022/03/17 03:59:15;;;;;;;20.90;12.57;;;;;;;8.62;100.00;102035.31;4998280;28;20006;-85
2022/03/17 04:01:41;;;;;;;27.90;17.15;;;;;;;8.54;100.00;102051.63;5015953;28;20160;-88
2022/03/17 04:04:06;;;;;;;32.50;18.20;;;;;;;8.41;100.00;102055.13;5034585;28;20018;-86
2022/03/17 04:06:34;;;;;;;36.33;19.07;;;;;;;8.32;100.00;102059.06;4987665;28;20019;-86
2022/03/17 04:09:00;;;;;;;39.20;19.85;;;;;;;8.27;100.00;102078.41;5013811;28;20026;-87
2022/03/17 04:11:25;;;;;;;39.20;17.83;;;;;;;8.25;100.00;102074.31;5013598;28;20041;-87
2022/03/17 04:13:51;;;;;;;33.80;19.47;;;;;;;8.18;100.00;102088.50;5011154;28;20080;-87
2022/03/17 04:16:16;;;;;;;33.25;16.45;;;;;;;8.18;100.00;102093.03;5007113;28;20493;-87
2022/03/17 04:18:42;;;;;;;29.30;16.63;;;;;;;8.10;100.00;102088.75;5013312;28;20018;-87
2022/03/17 04:21:07;;;;;;;32.80;17.07;;;;;;;8.07;100.00;102091.81;5014389;28;20041;-87
2022/03/17 04:23:32;;;;;;;36.73;18.63;;;;;;;8.07;100.00;102112.34;5015468;28;20033;-86
2022/03/17 04:25:57;;;;;;;33.20;16.38;;;;;;;8.06;100.00;102118.72;5014422;28;20034;-86
2022/03/17 04:28:23;;;;;;;33.30;17.60;;;;;;;8.03;100.00;102130.66;5027705;28;20029;-87
2022/03/17 04:30:48;;;;;;;27.43;16.10;;;;;;;8.00;100.00;102141.72;5030028;28;20054;-87
2022/03/17 04:33:13;;;;;;;28.43;13.37;;;;;;;7.94;100.00;102143.38;5031895;28;20125;-86
2022/03/17 04:35:39;;;;;;;27.70;14.07;;;;;;;7.86;100.00;102141.75;5016510;28;20038;-86
2022/03/17 04:38:04;;;;;;;22.17;11.77;;;;;;;7.83;100.00;102154.72;5028671;28;20041;-87
2022/03/17 04:40:29;;;;;;;23.37;12.17;;;;;;;7.81;100.00;102159.44;5006733;28;20037;-87
2022/03/17 04:42:54;;;;;;;23.58;11.55;;;;;;;7.77;100.00;102164.34;5001933;28;20022;-86
2022/03/17 04:45:21;;;;;;;29.80;13.10;;;;;;;7.75;100.00;102177.09;4990933;28;20535;-87
2022/03/17 04:47:46;;;;;;;27.17;14.05;;;;;;;7.70;100.00;102182.22;5010059;28;20421;-86
2022/03/17 04:50:11;;;;;;;26.47;12.90;;;;;;;7.67;100.00;102186.09;5010179;28;20018;-87
2022/03/17 04:55:21;;;;;;;26.73;13.57;;;;;;;7.64;100.00;102197.19;5020413;28;20096;-87
2022/03/17 04:57:48;;;;;;;28.52;14.10;;;;;;;7.64;100.00;102221.19;5010957;28;20663;-88
2022/03/17 05:00:14;;;;;;;31.80;15.13;;;;;;;7.62;100.00;102215.25;5012930;28;20101;-87
2022/03/17 05:02:39;;;;;;;31.50;15.30;;;;;;;7.61;100.00;102221.59;5011160;28;20053;-88
2022/03/17 05:05:05;;;;;;;34.13;16.70;;;;;;;7.60;100.00;102235.97;5005686;28;20030;-86
2022/03/17 05:07:30;;;;;;;35.90;16.58;;;;;;;7.56;100.00;102234.72;5012143;28;20461;-85
2022/03/17 05:09:55;;;;;;;33.97;16.20;;;;;;;7.50;100.00;102243.53;5010981;28;20029;-85
2022/03/17 05:12:21;;;;;;;30.20;14.40;;;;;;;7.43;100.00;102255.03;5012014;28;20432;-89
2022/03/17 05:14:46;;;;;;;30.15;12.68;;;;;;;7.43;100.00;102263.03;4993950;28;20037;-88
2022/03/17 05:17:12;;;;;;;27.03;12.07;;;;;;;7.40;99.78;102275.91;4991859;28;20121;-88
2022/03/17 05:19:37;;;;;;;22.47;9.27;;;;;;;7.38;98.97;102300.13;4992220;28;20022;-89
2022/03/17 05:22:03;;;;;;;24.10;8.70;;;;;;;7.34;98.41;102293.53;4993107;28;20034;-88
2022/03/17 05:24:28;;;;;;;15.60;6.88;;;;;;;7.33;98.06;102302.56;4992626;28;20027;-88
2022/03/17 05:26:56;;;;;;;18.03;7.10;;;;;;;7.29;97.60;102306.69;4999873;28;20026;-86
2022/03/17 05:29:21;;;;;;;15.80;5.97;;;;;;;7.25;96.95;102319.56;4991040;28;20034;-87
2022/03/17 05:31:47;;;;;;;15.55;5.03;;;;;;;7.27;95.91;102322.03;5009939;28;20615;-89
2022/03/17 05:34:13;;;;;;;17.50;5.07;;;;;;;7.18;94.60;102325.88;5009572;28;20052;-89
2022/03/17 05:36:38;;;;;;;10.10;4.47;;;;;;;7.20;94.53;102326.53;5008435;28;20480;-87
2022/03/17 05:39:03;;;;;;;20.30;4.47;;;;;;;7.13;94.09;102334.50;5012042;28;20022;-87
2022/03/17 05:41:29;;;;;;;13.07;4.10;;;;;;;7.12;93.68;102335.50;5011197;28;20040;-87
2022/03/17 05:43:54;;;;;;;15.70;4.20;;;;;;;7.09;94.17;102352.72;5013725;28;20030;-88
2022/03/17 05:46:20;;;;;;;10.73;3.50;;;;;;;7.08;94.15;102358.25;5014642;28;20030;-87
2022/03/17 05:48:46;;;;;;;18.17;4.40;;;;;;;7.07;93.71;102367.25;5018305;28;20052;-87
2022/03/17 05:51:11;;;;;;;15.13;4.03;;;;;;;7.05;93.67;102366.63;5018467;28;20053;-87
2022/03/17 05:53:36;;;;;;;18.93;4.30;;;;;;;7.10;93.79;102382.84;5016483;28;20458;-87
2022/03/17 05:56:01;;;;;;;16.30;4.37;;;;;;;7.09;93.58;102390.03;5006886;28;20026;-86
2022/03/17 05:58:27;;;;;;;13.67;4.47;;;;;;;7.10;93.03;102393.53;5012032;28;20229;-86
2022/03/17 06:00:52;;;;;;;15.03;4.20;;;;;;;7.11;92.71;102390.69;5012075;28;20052;-87
2022/03/17 06:03:17;;;;;;;15.17;4.63;;;;;;;7.07;92.67;102400.09;5004514;28;20060;-87
2022/03/17 06:05:46;;;;;;;10.50;4.30;;;;;;;7.07;93.34;102402.75;5011602;28;20485;-86
2022/03/17 06:08:11;;;;;;;12.20;4.03;;;;;;;7.07;92.86;102424.06;5010201;28;20034;-88
2022/03/17 06:10:37;;;;;;;10.63;3.43;;;;;;;7.08;92.54;102412.38;5008209;28;20072;-87
2022/03/17 06:13:04;;;;;;;6.63;2.37;;;;;;;7.08;91.11;102428.38;4990639;28;20304;-87
2022/03/17 06:15:31;;;;;;;10.05;2.72;;;;;;;7.05;90.94;102425.25;5002030;28;20026;-87
2022/03/17 06:17:59;;;;;;;12.40;2.58;;;;;;;7.02;90.73;102442.47;4992446;28;20038;-87
2022/03/17 06:20:26;;;;;;;7.55;2.20;;;;;;;7.01;90.29;102450.69;4995107;28;20022;-87
2022/03/17 06:22:55;;;;;;;6.05;2.22;;;;;;;7.03;90.03;102457.47;4999916;28;20183;-87
2022/03/17 06:25:23;;;;;;;7.43;2.45;;;;;;;6.99;90.94;102455.38;4971962;28;20378;-87
2022/03/17 06:27:50;;;;;;;6.65;2.10;;;;;;;7.00;91.05;102468.50;4973245;28;20030;-88
2022/03/17 06:30:20;;;;;;;9.90;2.60;;;;;;;6.99;91.31;102474.84;4972705;28;20026;-88
2022/03/17 06:32:46;;;;;;;12.85;2.60;;;;;;;6.99;90.99;102482.84;4968349;28;20027;-87
2022/03/17 06:35:17;;;;;;;8.77;2.50;;;;;;;6.97;91.50;102485.72;5010406;28;20429;-87
2022/03/17 06:37:42;;;;;;;8.20;2.50;;;;;;;6.97;91.68;102488.38;5008810;28;20332;-87
2022/03/17 06:40:08;;;;;;;8.23;2.88;;;;;;;6.97;91.42;102501.72;4980108;28;20546;-86
2022/03/17 06:42:34;;;;;;;10.63;2.88;;;;;;;7.00;92.02;102505.00;4989776;28;20106;-86
2022/03/17 06:45:00;;;;;;;16.80;3.33;;;;;;;7.01;91.74;102522.66;4987511;28;20204;-86
2022/03/17 06:47:26;;;;;;;11.83;2.70;;;;;;;7.00;91.72;102511.16;5009948;28;20355;-89
2022/03/17 06:49:51;;;;;;;8.80;2.58;;;;;;;7.03;89.94;102531.28;5009671;28;20037;-89
2022/03/17 06:52:18;;;;;;;9.13;2.13;;;;;;;7.03;88.74;102524.09;4992477;28;20058;-96
2022/03/17 06:54:44;;;;;;;8.82;2.03;;;;;;;7.08;88.73;102540.34;5003200;28;20034;-94
2022/03/17 06:57:10;;;;;;;7.72;1.90;;;;;;;7.10;88.06;102540.16;5001292;28;20031;-91
2022/03/17 06:59:35;;;;;;;11.20;2.00;;;;;;;7.15;88.44;102536.88;4984907;28;20065;-92
2022/03/17 07:02:00;;;;;;;9.43;1.63;;;;;;;7.20;88.41;102545.16;4999095;28;20677;-95
2022/03/17 07:04:26;;;;;;;15.53;2.30;;;;;;;7.25;87.18;102564.06;5011431;28;20030;-94
2022/03/17 07:06:56;;;;;;;8.83;1.77;;;;;;;7.24;86.49;102559.75;5011781;28;20117;-93
2022/03/17 07:09:21;;;;;;;9.23;1.50;;;;;;;7.27;85.86;102568.19;4981553;28;20049;-96
2022/03/17 07:11:47;;;;;;;10.27;1.47;;;;;;;7.32;86.33;102561.44;4992631;28;20027;-95
2022/03/17 07:14:12;;;;;;;6.25;0.95;;;;;;;7.31;84.93;102579.28;5007907;28;20030;-96
2022/03/17 07:22:03;;;;;;;8.57;1.40;;;;;;;7.41;85.32;102597.59;5021003;28;20046;-96
2022/03/17 07:24:35;;;;;;;9.18;1.42;;;;;;;7.33;86.04;102590.56;5020268;28;20175;-96
2022/03/17 07:27:01;;;;;;;7.83;1.00;;;;;;;7.25;86.06;102604.06;5002859;28;20030;-95
2022/03/17 07:29:31;;;;;;;26.83;2.70;;;;;;;7.23;86.10;102603.44;5009691;28;20296;-95
2022/03/17 07:32:05;;;;;;;13.88;1.52;;;;;;;7.17;87.76;102613.03;5004566;28;20497;-96
2022/03/17 07:34:32;;;;;;;7.85;0.93;;;;;;;7.00;89.11;102601.78;5003889;28;20062;-96
2022/03/17 07:36:59;;;;;;;8.32;1.08;;;;;;;7.01;90.47;102619.41;5012656;28;20126;-96
2022/03/17 07:47:10;;;;;;;6.10;0.93;;;;;;;7.15;90.68;102643.53;4313232;23;20050;-94
2022/03/17 07:52:13;;;;;;;9.02;1.10;;;;;;;7.17;89.22;102642.34;5200487;23;20044;-90
2022/03/17 07:55:02;;;;;;;11.75;1.50;;;;;;;7.23;89.51;102654.91;5008315;28;20030;-94
2022/03/17 07:58:04;;;;;;;11.85;1.30;;;;;;;7.23;88.73;102640.75;5036560;28;20041;-96
2022/03/17 08:00:54;;;;;;;6.70;1.00;;;;;;;7.45;88.44;102678.91;5023321;28;20058;-95
2022/03/17 08:03:21;;;;;;;10.70;1.73;;;;;;;7.39;87.27;102661.81;5017110;28;20822;-96
2022/03/17 08:05:48;;;;;;;11.30;1.10;;;;;;;7.49;86.64;102684.69;5014260;28;20060;-93
2022/03/17 08:08:17;;;;;;;10.18;1.83;;;;;;;7.48;86.77;102675.06;5018838;28;20026;-93
2022/03/17 08:10:43;;;;;;;13.73;1.15;;;;;;;7.56;85.22;102685.56;5013058;28;20037;-95
2022/03/17 08:13:09;;;;;;;10.95;1.08;;;;;;;7.52;84.96;102694.97;5026767;28;20022;-95
2022/03/17 08:15:39;;;;;;;5.53;0.98;;;;;;;7.56;84.74;102697.09;5026954;28;20022;-94
2022/03/17 08:18:11;;;;;;;12.65;1.27;;;;;;;7.48;83.71;102694.53;5007204;28;20026;-96
2022/03/17 08:20:41;;;;;;;11.20;1.63;;;;;;;7.45;84.41;102691.44;4987688;28;20054;-95
2022/03/17 08:23:08;;;;;;;9.20;1.00;;;;;;;7.57;84.31;102705.91;5002340;28;20030;-96
2022/03/17 08:25:35;;;;;;;9.93;0.90;;;;;;;7.60;84.20;102716.19;5001336;28;20374;-95
2022/03/17 08:28:03;;;;;;;11.43;1.10;;;;;;;7.65;83.44;102729.78;5206252;23;20088;-94
2022/03/17 08:30:30;;;;;;;5.70;0.60;;;;;;;7.67;82.02;102738.41;5009088;28;20022;-94
2022/03/17 08:32:56;;;;;;;8.30;1.00;;;;;;;7.74;83.25;102749.16;5005999;28;20038;-94
2022/03/17 08:35:25;;;;;;;7.28;1.33;;;;;;;7.75;80.79;102725.97;5014407;23;20033;-96
2022/03/17 08:37:51;;;;;;;12.27;1.40;;;;;;;7.89;80.67;102733.06;5022889;28;20033;-96
2022/03/17 08:40:22;;;;;;;9.77;1.30;;;;;;;8.20;78.98;102739.88;5023117;28;20106;-96
2022/03/17 08:43:32;;;;;;;8.77;0.98;;;;;;;8.59;77.86;102764.41;5025190;28;20072;-95
2022/03/17 08:52:53;;;;;;;11.37;1.23;;;;;;;8.57;72.20;102785.16;5003867;28;20358;-96
2022/03/17 08:55:44;;;;;;;7.53;0.77;;;;;;;8.63;72.09;102792.38;4999628;28;20034;-96
2022/03/17 09:01:44;;;;;;;13.32;1.38;;;;;;;8.52;72.60;102775.06;5006850;28;20073;-96
2022/03/17 09:04:14;;;;;;;6.70;0.95;;;;;;;8.73;71.87;102800.88;5000419;28;20042;-96
2022/03/17 09:06:43;;;;;;;6.05;0.73;;;;;;;8.76;71.08;102794.31;4998966;28;20018;-96
2022/03/17 09:09:45;;;;;;;14.75;1.52;;;;;;;8.73;70.41;102802.72;5028700;28;20018;-96
2022/03/17 09:15:40;;;;;;;10.77;1.08;;;;;;;8.57;69.68;102810.03;4998601;28;20045;-96
2022/03/17 09:18:53;;;;;;;9.67;0.97;;;;;;;8.66;71.95;102831.25;5011008;28;20058;-96
2022/03/17 09:21:21;;;;;;;7.87;0.80;;;;;;;8.67;69.25;102824.88;4964359;28;20303;-96
2022/03/17 09:52:17;;;;;;;7.90;1.05;;;;;;;9.51;65.97;102874.66;5336848;23;20057;-85
2022/03/17 09:54:44;;;;;;;11.60;1.20;;;;;;;9.59;65.49;102883.56;5027874;28;20439;-84
2022/03/17 09:57:10;;;;;;;9.05;1.25;;;;;;;9.55;64.82;102889.31;5027008;28;20033;-84
2022/03/17 09:59:35;;;;;;;9.85;1.00;;;;;;;9.43;65.26;102882.06;5029855;28;20404;-84
2022/03/17 10:02:03;;;;;;;13.47;1.10;;;;;;;9.49;64.86;102892.81;5030122;28;20575;-83
2022/03/17 10:04:35;;;;;;;10.45;1.00;;;;;;;9.55;64.76;102900.03;5030076;28;20459;-84
2022/03/17 10:07:00;;;;;;;7.45;1.30;;;;;;;9.59;63.64;102907.66;5029298;28;20022;-84
2022/03/17 10:09:29;;;;;;;7.17;1.10;;;;;;;9.46;63.83;102919.97;5029803;28;20473;-84
2022/03/17 10:12:03;;;;;;;9.32;1.23;;;;;;;9.46;65.63;102919.97;5029335;28;20425;-83
2022/03/17 10:14:41;;;;;;;8.73;1.00;;;;;;;9.53;65.66;102920.00;5027658;28;20036;-84
2022/03/17 10:17:31;;;;;;;8.85;1.10;;;;;;;9.56;64.70;102930.31;5028905;28;20028;-84
2022/03/17 10:20:21;;;;;;;6.85;0.93;;;;;;;9.70;65.36;102931.16;5029028;28;20028;-84
2022/03/17 10:22:49;;;;;;;8.05;1.00;;;;;;;9.59;64.46;102934.41;5011770;28;20025;-84
2022/03/17 10:25:19;;;;;;;6.35;1.08;;;;;;;9.73;64.60;102949.50;5028444;28;20128;-84
2022/03/17 10:27:45;;;;;;;6.05;1.27;;;;;;;9.79;62.06;102942.53;5027424;28;20392;-84
2022/03/17 10:30:15;;;;;;;6.73;0.80;;;;;;;9.91;61.61;102962.34;5028323;28;20069;-83
2022/03/17 10:33:03;;;;;;;5.23;0.97;;;;;;;10.13;61.69;102951.50;5029799;28;20280;-84
2022/03/17 10:35:36;;;;;;;5.30;0.70;;;;;;;10.11;61.48;102957.03;5028324;28;20095;-84
2022/03/17 10:38:39;;;;;;;5.50;0.90;;;;;;;10.16;62.92;102964.47;5018503;28;20163;-84
2022/03/17 10:41:12;;;;;;;5.75;0.90;;;;;;;10.20;62.26;102962.22;5020023;28;20021;-84
2022/03/17 10:43:42;;;;;;;5.80;1.40;;;;;;;10.36;60.98;102971.72;5018741;28;20026;-83
2022/03/17 10:46:18;;;;;;;20.92;1.90;;;;;;;10.45;61.33;102982.09;5017908;28;20484;-85
2022/03/17 10:48:59;;;;;;;7.78;1.13;;;;;;;10.53;61.06;102978.38;5020149;28;20041;-85
2022/03/17 10:51:38;;;;;;;5.68;0.90;;;;;;;10.48;60.61;102982.72;5019395;28;20079;-85
2022/03/17 10:54:11;;;;;;;6.97;1.10;;;;;;;10.47;60.90;102983.75;5024686;28;20104;-84
2022/03/17 10:56:39;;;;;;;10.50;1.17;;;;;;;10.26;60.42;102983.69;5025853;28;20025;-84
2022/03/17 10:59:07;;;;;;;8.73;0.93;;;;;;;10.31;60.71;102999.13;5032239;28;20280;-84
2022/03/17 11:01:40;;;;;;;11.70;1.20;;;;;;;10.35;61.49;103002.22;5034353;28;20033;-85
2022/03/17 11:04:07;;;;;;;6.80;1.10;;;;;;;10.47;60.23;103008.69;5032768;28;20033;-84
2022/03/17 11:06:34;;;;;;;9.32;1.35;;;;;;;10.51;60.54;103017.16;5033862;28;20449;-84
2022/03/17 11:09:03;;;;;;;5.22;1.30;;;;;;;10.54;60.76;103017.56;5034317;28;20029;-83
2022/03/17 11:11:29;;;;;;;7.35;1.10;;;;;;;10.68;60.17;103029.13;5031976;28;20072;-84
2022/03/17 11:13:58;;;;;;;5.25;1.02;;;;;;;10.73;58.87;103025.84;5033759;28;20420;-84
2022/03/17 11:16:35;;;;;;;8.98;1.20;;;;;;;10.74;59.32;103030.16;5007388;28;20570;-85
2022/03/17 11:19:02;;;;;;;8.63;1.30;;;;;;;10.74;58.42;103039.06;5033236;28;20033;-85
2022/03/17 11:21:29;;;;;;;5.90;0.93;;;;;;;10.81;58.32;103035.53;5032012;28;20029;-83
2022/03/17 11:24:04;;;;;;;5.77;0.83;;;;;;;10.79;57.37;103046.47;5033188;28;20310;-85
2022/03/17 11:26:37;;;;;;;5.80;1.08;;;;;;;10.66;57.86;103036.56;5032086;28;20033;-84
2022/03/17 11:29:09;;;;;;;4.30;0.98;;;;;;;10.86;57.18;103043.81;5039282;28;20025;-84
2022/03/17 11:31:58;;;;;;;7.95;1.00;;;;;;;11.06;57.47;103047.31;5046119;28;20025;-83
2022/03/17 11:34:41;;;;;;;6.05;0.90;;;;;;;10.97;56.62;103039.69;5030885;28;20687;-84
2022/03/17 11:37:18;;;;;;;5.03;0.90;;;;;;;11.14;56.52;103048.13;5031406;28;20033;-84
2022/03/17 11:40:11;;;;;;;6.53;1.00;;;;;;;11.26;55.29;103049.16;5030589;28;20036;-83
2022/03/17 11:42:52;;;;;;;6.55;1.27;;;;;;;11.33;55.13;103041.91;5018349;28;20153;-85
2022/03/17 11:45:18;;;;;;;4.45;0.95;;;;;;;11.38;54.43;103054.72;5032497;28;20041;-86
2022/03/17 11:47:45;;;;;;;6.07;1.47;;;;;;;11.42;54.12;103044.41;5030410;28;20124;-84
2022/03/17 11:50:22;;;;;;;6.63;1.10;;;;;;;11.40;54.14;103052.66;5028118;28;20041;-83
2022/03/17 11:53:02;;;;;;;4.97;1.53;;;;;;;11.38;55.74;103064.63;5026308;28;20030;-83
2022/03/17 11:55:36;;;;;;;6.40;1.20;;;;;;;11.45;53.81;103070.81;5025467;28;20308;-83
2022/03/17 11:58:23;;;;;;;9.63;1.27;;;;;;;11.45;54.64;103068.16;5029837;28;20025;-85
2022/03/17 12:00:53;;;;;;;4.88;1.33;;;;;;;11.43;54.81;103075.56;5026975;28;20493;-84
2022/03/17 12:03:26;;;;;;;5.60;1.05;;;;;;;11.47;54.62;103074.94;5014587;28;20029;-84
2022/03/17 12:06:12;;;;;;;6.22;1.20;;;;;;;11.61;55.51;103078.44;5028673;28;20045;-84
2022/03/17 12:09:00;;;;;;;6.95;1.45;;;;;;;11.66;55.22;103083.19;5031622;28;20033;-84
2022/03/17 12:11:30;;;;;;;5.32;1.70;;;;;;;11.78;55.43;103080.66;5030491;28;20091;-83
2022/03/17 12:14:13;;;;;;;7.03;1.45;;;;;;;11.83;56.31;103091.63;5041410;28;20029;-83
2022/03/17 12:16:46;;;;;;;8.43;1.50;;;;;;;11.88;55.30;103089.09;5045918;28;20029;-85
2022/03/17 12:19:27;;;;;;;12.30;1.60;;;;;;;11.88;55.53;103085.59;5037440;28;20030;-85
2022/03/17 12:22:02;;;;;;;12.77;1.80;;;;;;;11.74;55.26;103080.28;5020994;28;20303;-85
2022/03/17 12:24:34;;;;;;;7.78;1.23;;;;;;;11.73;56.13;103083.16;5021909;28;20120;-84
2022/03/17 12:27:05;;;;;;;8.38;1.70;;;;;;;11.75;54.22;103089.16;5023035;28;20028;-84
2022/03/17 12:29:31;;;;;;;4.28;1.70;;;;;;;11.87;55.32;103089.31;5022490;28;20525;-83
2022/03/17 12:32:04;;;;;;;6.68;1.50;;;;;;;11.94;54.03;103090.97;5023210;28;20039;-83
2022/03/17 12:34:29;;;;;;;8.95;1.45;;;;;;;11.97;53.74;103093.22;5020909;28;20480;-84
2022/03/17 12:36:55;;;;;;;6.78;1.70;;;;;;;12.05;54.15;103094.88;5029861;28;20044;-84
2022/03/17 12:39:35;;;;;;;7.55;1.70;;;;;;;12.06;54.50;103093.00;5023928;28;20034;-82